createdAt,value
2023-02-19T00:01:51.584Z,14.95
2023-02-19T00:04:25.030Z,14.05
2023-02-19T00:06:53.979Z,13.05
2023-02-19T00:09:23.543Z,13.40
2023-02-19T00:11:53.493Z,14.02
2023-02-19T00:14:24.913Z,11.93
2023-02-19T00:16:56.049Z,12.38
2023-02-19T00:19:25.586Z,14.93
2023-02-19T00:21:58.740Z,15.85
2023-02-19T00:24:27.967Z,16.00
2023-02-19T00:26:59.087Z,16.63
2023-02-19T00:29:31.082Z,14.30
2023-02-19T00:32:00.866Z,15.40
2023-02-19T00:34:29.768Z,17.15
2023-02-19T00:37:05.073Z,13.23
2023-02-19T00:39:34.323Z,12.88
2023-02-19T00:42:04.700Z,14.05
2023-02-19T00:44:39.281Z,12.05
2023-02-19T00:47:08.277Z,13.25
2023-02-19T00:49:41.135Z,13.68
2023-02-19T00:52:13.185Z,14.18
2023-02-19T00:54:46.807Z,13.05
2023-02-19T00:57:20.873Z,14.05
2023-02-19T00:59:49.934Z,13.82
2023-02-19T01:02:19.349Z,14.73
2023-02-19T01:04:48.610Z,11.95
2023-02-19T01:07:17.284Z,11.70
2023-02-19T01:09:48.228Z,12.05
2023-02-19T01:12:16.944Z,13.02
2023-02-19T01:14:46.056Z,14.00
2023-02-19T01:17:16.047Z,15.18
2023-02-19T01:19:45.076Z,12.35
2023-02-19T01:22:14.076Z,12.75
2023-02-19T01:24:48.120Z,12.07
2023-02-19T01:27:17.235Z,12.52
2023-02-19T01:29:48.244Z,12.45
2023-02-19T01:32:22.128Z,12.82
2023-02-19T01:34:53.417Z,12.82
2023-02-19T01:37:22.279Z,14.00
2023-02-19T01:39:51.107Z,12.90
2023-02-19T01:42:22.893Z,12.80
2023-02-19T01:44:52.304Z,11.20
2023-02-19T01:47:22.130Z,13.70
2023-02-19T01:49:55.872Z,12.68
2023-02-19T01:52:33.150Z,11.48
2023-02-19T01:55:08.302Z,10.98
2023-02-19T01:57:44.405Z,10.30
2023-02-19T02:00:16.121Z,10.98
2023-02-19T02:02:51.814Z,11.18
2023-02-19T02:05:45.680Z,12.57
2023-02-19T02:08:39.264Z,11.20
2023-02-19T02:11:11.292Z,13.82
2023-02-19T02:13:44.276Z,15.75
2023-02-19T02:16:30.322Z,12.77
2023-02-19T02:19:15.766Z,14.48
2023-02-19T02:22:00.583Z,13.85
2023-02-19T02:24:52.477Z,13.52
2023-02-19T02:27:42.616Z,12.88
2023-02-19T02:30:43.693Z,12.93
2023-02-19T02:33:30.968Z,12.57
2023-02-19T02:36:22.804Z,12.27
2023-02-19T02:38:58.844Z,12.82
2023-02-19T02:41:35.717Z,13.25
2023-02-19T02:44:07.387Z,11.40
2023-02-19T02:46:44.424Z,11.27
2023-02-19T02:49:25.671Z,11.48
2023-02-19T02:52:20.266Z,13.07
2023-02-19T02:55:04.530Z,10.55
2023-02-19T02:57:35.987Z,10.55
2023-02-19T03:00:05.423Z,10.52
2023-02-19T03:02:37.626Z,10.65
2023-02-19T03:05:39.098Z,10.55
2023-02-19T03:08:21.460Z,9.15
2023-02-19T03:10:56.974Z,9.65
2023-02-19T03:13:56.950Z,10.60
2023-02-19T03:16:54.074Z,10.57
2023-02-19T03:19:31.019Z,11.30
2023-02-19T03:22:12.285Z,10.77
2023-02-19T03:25:10.071Z,11.38
2023-02-19T03:27:44.834Z,12.38
2023-02-19T03:30:24.499Z,11.20
2023-02-19T03:33:03.703Z,11.48
2023-02-19T03:35:40.050Z,10.95
2023-02-19T03:38:54.122Z,11.93
2023-02-19T03:41:32.187Z,10.35
2023-02-19T03:44:10.634Z,12.07
2023-02-19T03:46:48.902Z,10.82
2023-02-19T03:49:36.342Z,10.98
2023-02-19T03:52:29.538Z,10.88
2023-02-19T03:55:30.831Z,10.75
2023-02-19T03:58:39.523Z,10.57
2023-02-19T04:01:42.040Z,10.75
2023-02-19T04:04:20.536Z,9.15
2023-02-19T04:06:56.213Z,9.75
2023-02-19T04:09:33.024Z,8.68
2023-02-19T04:12:18.176Z,9.30
2023-02-19T04:15:07.383Z,10.35
2023-02-19T04:17:45.424Z,9.55
2023-02-19T04:20:15.943Z,9.73
2023-02-19T04:22:53.280Z,9.00
2023-02-19T04:25:27.054Z,8.90
2023-02-19T04:27:56.333Z,8.63
2023-02-19T04:30:25.771Z,10.05
2023-02-19T04:32:57.210Z,9.15
2023-02-19T04:35:26.287Z,9.68
2023-02-19T04:37:57.466Z,10.68
2023-02-19T04:40:26.448Z,9.20
2023-02-19T04:42:58.064Z,9.68
2023-02-19T04:45:27.408Z,9.45
2023-02-19T04:48:04.024Z,9.07
2023-02-19T04:50:33.041Z,9.48
2023-02-19T04:53:08.480Z,9.48
2023-02-19T04:55:40.768Z,8.80
2023-02-19T04:58:09.758Z,8.57
2023-02-19T05:00:41.889Z,8.90
2023-02-19T05:03:16.079Z,9.32
2023-02-19T05:05:45.131Z,8.38
2023-02-19T05:08:21.340Z,7.20
2023-02-19T05:10:59.505Z,7.28
2023-02-19T05:13:34.417Z,9.40
2023-02-19T05:16:14.359Z,10.07
2023-02-19T05:18:46.682Z,9.73
2023-02-19T05:21:20.850Z,9.57
2023-02-19T05:23:53.101Z,9.52
2023-02-19T05:26:24.278Z,9.35
2023-02-19T05:29:03.584Z,9.30
2023-02-19T05:31:34.238Z,9.65
2023-02-19T05:34:03.863Z,8.40
2023-02-19T05:36:35.372Z,8.73
2023-02-19T05:39:07.869Z,8.10
2023-02-19T05:41:43.539Z,9.07
2023-02-19T05:44:19.247Z,8.80
2023-02-19T05:46:55.591Z,8.40
2023-02-19T05:49:27.544Z,8.55
2023-02-19T05:51:59.773Z,7.38
2023-02-19T05:54:32.759Z,9.15
2023-02-19T05:57:09.946Z,9.23
2023-02-19T05:59:42.198Z,7.75
2023-02-19T06:02:11.092Z,7.57
2023-02-19T06:04:43.355Z,7.72
2023-02-19T06:07:12.399Z,8.30
2023-02-19T06:09:42.433Z,9.13
2023-02-19T06:12:12.411Z,9.18
2023-02-19T06:14:44.055Z,7.80
2023-02-19T06:17:15.477Z,8.07
2023-02-19T06:19:50.398Z,8.55
2023-02-19T06:22:21.964Z,8.35
2023-02-19T06:24:53.468Z,8.50
2023-02-19T06:27:26.523Z,8.45
2023-02-19T06:29:55.711Z,8.73
2023-02-19T06:32:27.295Z,8.75
2023-02-19T06:34:56.595Z,8.68
2023-02-19T06:37:29.087Z,8.60
2023-02-19T06:40:10.588Z,9.35
2023-02-19T06:42:44.031Z,9.13
2023-02-19T06:45:15.175Z,9.00
2023-02-19T06:47:48.773Z,8.82
2023-02-19T06:50:17.864Z,8.50
2023-02-19T06:52:51.749Z,8.80
2023-02-19T06:55:25.610Z,8.52
2023-02-19T06:57:58.680Z,9.68
2023-02-19T07:00:28.012Z,9.32
2023-02-19T07:02:57.360Z,9.77
2023-02-19T07:05:28.717Z,8.80
2023-02-19T07:08:00.242Z,8.27
2023-02-19T07:10:30.213Z,8.60
2023-02-19T07:13:03.821Z,9.15
2023-02-19T07:15:35.377Z,9.05
2023-02-19T07:18:07.734Z,8.85
2023-02-19T07:20:41.773Z,8.25
2023-02-19T07:23:13.303Z,8.13
2023-02-19T07:25:44.704Z,9.10
2023-02-19T07:28:19.833Z,8.88
2023-02-19T07:30:49.119Z,10.23
2023-02-19T07:33:21.615Z,8.65
2023-02-19T07:35:51.770Z,9.18
2023-02-19T07:38:26.050Z,9.15
2023-02-19T07:41:03.267Z,9.48
2023-02-19T07:43:39.764Z,9.65
2023-02-19T07:46:16.911Z,9.48
2023-02-19T07:48:46.777Z,10.75
2023-02-19T07:51:19.693Z,9.82
2023-02-19T07:53:59.645Z,9.02
2023-02-19T07:56:29.657Z,8.65
2023-02-19T07:59:01.334Z,8.70
2023-02-19T08:01:48.955Z,8.32
2023-02-19T08:04:20.185Z,8.35
2023-02-19T08:06:53.986Z,8.00
2023-02-19T08:09:28.591Z,8.07
2023-02-19T08:12:18.742Z,8.40
2023-02-19T08:14:50.338Z,8.38
2023-02-19T08:17:21.906Z,7.60
2023-02-19T08:20:14.554Z,7.78
2023-02-19T08:22:43.865Z,7.70
2023-02-19T08:25:15.329Z,8.20
2023-02-19T08:27:47.140Z,7.72
2023-02-19T08:30:19.283Z,7.32
2023-02-19T08:32:51.055Z,7.25
2023-02-19T08:35:29.924Z,7.03
2023-02-19T08:38:01.791Z,6.78
2023-02-19T08:40:36.034Z,8.05
2023-02-19T08:43:17.305Z,6.68
2023-02-19T08:45:55.692Z,7.47
2023-02-19T08:48:33.640Z,8.00
2023-02-19T08:51:09.236Z,7.50
2023-02-19T08:53:42.464Z,7.60
2023-02-19T08:56:20.603Z,8.05
2023-02-19T08:58:55.975Z,7.65
2023-02-19T09:01:26.052Z,7.40
2023-02-19T09:03:56.613Z,6.85
2023-02-19T09:06:32.018Z,6.85
2023-02-19T09:09:10.504Z,7.10
2023-02-19T09:11:43.128Z,7.40
2023-02-19T09:14:14.786Z,7.75
2023-02-19T09:16:45.866Z,7.55
2023-02-19T09:19:15.260Z,7.13
2023-02-19T09:21:44.622Z,7.47
2023-02-19T09:24:21.086Z,7.47
2023-02-19T09:26:50.894Z,7.20
2023-02-19T09:29:20.619Z,7.47
2023-02-19T09:31:51.857Z,7.22
2023-02-19T09:34:23.876Z,8.43
2023-02-19T09:36:58.156Z,7.95
2023-02-19T09:39:36.253Z,7.35
2023-02-19T09:42:19.480Z,7.47
2023-02-19T09:44:52.103Z,6.63
2023-02-19T09:47:32.463Z,6.60
2023-02-19T09:50:13.416Z,6.40
2023-02-19T09:53:03.250Z,6.47
2023-02-19T09:55:43.132Z,5.60
2023-02-19T09:58:16.179Z,6.05
2023-02-19T10:00:51.852Z,6.32
2023-02-19T10:03:34.927Z,5.75
2023-02-19T10:06:14.962Z,6.43
2023-02-19T10:08:47.960Z,6.65
2023-02-19T10:11:19.863Z,6.00
2023-02-19T10:14:09.818Z,5.80
2023-02-19T10:16:45.961Z,6.45
2023-02-19T10:19:18.588Z,5.60
2023-02-19T10:21:52.257Z,6.50
2023-02-19T10:24:28.585Z,4.95
2023-02-19T10:27:00.195Z,6.00
2023-02-19T10:29:30.577Z,5.72
2023-02-19T10:32:18.833Z,5.25
2023-02-19T10:35:10.802Z,5.60
2023-02-19T10:37:50.460Z,4.72
2023-02-19T10:40:24.158Z,4.82
2023-02-19T10:42:57.880Z,5.47
2023-02-19T10:45:49.116Z,5.63
2023-02-19T10:48:25.556Z,4.53
2023-02-19T10:51:00.500Z,4.90
2023-02-19T10:53:44.256Z,4.28
2023-02-19T10:56:26.140Z,4.38
2023-02-19T10:59:19.731Z,4.13
2023-02-19T11:02:19.514Z,4.30
2023-02-19T11:05:21.740Z,4.20
2023-02-19T11:07:59.842Z,4.32
2023-02-19T11:10:39.603Z,3.90
2023-02-19T11:13:18.721Z,4.10
2023-02-19T11:15:54.063Z,4.32
2023-02-19T11:18:33.943Z,4.00
2023-02-19T11:21:07.525Z,3.55
2023-02-19T11:23:50.643Z,3.95
2023-02-19T11:26:28.517Z,3.95
2023-02-19T11:29:21.330Z,3.53
2023-02-19T11:32:22.704Z,3.72
2023-02-19T11:40:46.652Z,3.33
2023-02-19T11:43:44.525Z,4.80
2023-02-19T11:46:47.905Z,4.25
2023-02-19T11:49:39.400Z,4.13
2023-02-19T11:52:51.686Z,4.45
2023-02-19T11:55:40.110Z,4.22
2023-02-19T12:01:01.111Z,4.45
2023-02-19T12:03:54.360Z,4.20
2023-02-19T12:07:08.492Z,4.50
2023-02-19T12:10:04.837Z,3.70
2023-02-19T12:12:52.944Z,3.80
2023-02-19T12:15:36.632Z,3.78
2023-02-19T12:18:57.526Z,4.20
2023-02-19T12:21:38.231Z,4.03
2023-02-19T12:24:43.128Z,4.70
2023-02-19T12:27:15.263Z,4.43
2023-02-19T12:30:14.819Z,4.25
2023-02-19T12:33:07.827Z,4.20
2023-02-19T12:35:43.936Z,5.13
2023-02-19T12:38:37.683Z,4.88
2023-02-19T12:41:59.253Z,4.35
2023-02-19T12:44:41.330Z,4.78
2023-02-19T12:47:20.086Z,5.57
2023-02-19T12:50:15.494Z,5.10
2023-02-19T12:52:48.884Z,6.00
2023-02-19T12:55:33.434Z,6.07
2023-02-19T12:58:11.400Z,4.63
2023-02-19T13:01:01.162Z,5.07
2023-02-19T13:04:11.734Z,5.65
2023-02-19T13:06:51.164Z,4.40
2023-02-19T13:09:31.159Z,5.38
2023-02-19T13:12:18.999Z,4.65
2023-02-19T13:14:58.722Z,5.00
2023-02-19T13:18:01.560Z,4.57
2023-02-19T13:20:38.402Z,4.63
2023-02-19T13:23:44.406Z,4.80
2023-02-19T13:26:50.618Z,4.88
2023-02-19T13:29:42.112Z,4.45
2023-02-19T13:32:45.554Z,4.47
2023-02-19T13:35:47.172Z,4.78
2023-02-19T13:38:22.212Z,4.85
2023-02-19T13:41:00.837Z,5.03
2023-02-19T13:43:39.711Z,5.45
2023-02-19T13:46:13.350Z,5.38
2023-02-19T13:49:11.117Z,4.93
2023-02-19T13:51:50.021Z,4.95
2023-02-19T13:54:37.739Z,5.35
2023-02-19T13:57:35.441Z,4.97
2023-02-19T14:00:54.327Z,4.80
2023-02-19T14:03:55.825Z,4.63
2023-02-19T14:07:07.473Z,5.05
2023-02-19T14:09:49.472Z,4.75
2023-02-19T14:12:34.458Z,4.18
2023-02-19T14:15:26.592Z,4.60
2023-02-19T14:17:57.696Z,4.63
2023-02-19T14:20:36.321Z,4.30
2023-02-19T14:23:27.094Z,4.22
2023-02-19T14:26:04.242Z,4.60
2023-02-19T14:28:45.088Z,4.35
2023-02-19T14:31:34.958Z,4.93
2023-02-19T14:34:22.890Z,5.25
2023-02-19T14:37:01.630Z,5.32
2023-02-19T14:39:40.002Z,4.88
2023-02-19T14:42:18.316Z,4.95
2023-02-19T14:44:53.501Z,5.15
2023-02-19T14:47:28.388Z,4.75
2023-02-19T14:52:44.126Z,4.72
2023-02-19T14:55:51.147Z,5.05
2023-02-19T14:58:34.540Z,5.18
2023-02-19T15:01:06.049Z,4.43
2023-02-19T15:03:44.907Z,4.63
2023-02-19T15:06:24.094Z,4.65
2023-02-19T15:09:03.511Z,4.93
2023-02-19T15:11:34.149Z,4.82
2023-02-19T15:16:41.456Z,5.10
2023-02-19T15:19:15.383Z,4.25
2023-02-19T15:21:55.939Z,4.80
2023-02-19T15:24:33.655Z,4.85
2023-02-19T15:27:06.112Z,5.25
2023-02-19T15:29:45.536Z,4.78
2023-02-19T15:32:23.389Z,4.75
2023-02-19T15:35:04.440Z,5.40
2023-02-19T15:37:37.144Z,4.70
2023-02-19T15:40:08.304Z,6.30
2023-02-19T15:42:49.961Z,5.03
2023-02-19T15:45:25.140Z,5.03
2023-02-19T15:48:20.112Z,4.90
2023-02-19T15:50:59.115Z,4.70
2023-02-19T15:53:34.791Z,4.90
2023-02-19T15:56:17.160Z,5.25
2023-02-19T15:58:52.161Z,5.05
2023-02-19T16:01:38.410Z,5.25
2023-02-19T16:04:21.073Z,5.13
2023-02-19T16:06:58.137Z,6.18
2023-02-19T16:09:40.604Z,6.07
2023-02-19T16:12:27.928Z,5.80
2023-02-19T16:14:57.516Z,5.07
2023-02-19T16:17:29.345Z,5.72
2023-02-19T16:20:05.653Z,5.60
2023-02-19T16:22:45.237Z,6.82
2023-02-19T16:25:42.287Z,5.50
2023-02-19T16:28:15.320Z,5.53
2023-02-19T16:30:47.688Z,5.35
2023-02-19T16:33:38.405Z,5.32
2023-02-19T16:36:26.716Z,5.47
2023-02-19T16:39:08.586Z,5.57
2023-02-19T16:41:41.187Z,6.63
2023-02-19T16:44:39.503Z,8.52
2023-02-19T16:47:25.150Z,8.25
2023-02-19T16:49:57.059Z,8.18
2023-02-19T16:52:33.660Z,7.38
2023-02-19T16:55:14.560Z,7.78
2023-02-19T16:57:44.179Z,7.75
2023-02-19T17:00:26.391Z,7.10
2023-02-19T17:03:10.152Z,6.18
2023-02-19T17:05:45.061Z,6.15
2023-02-19T17:08:37.615Z,6.18
2023-02-19T17:11:15.952Z,5.72
2023-02-19T17:13:47.199Z,4.88
2023-02-19T17:16:23.007Z,5.72
2023-02-19T17:18:52.534Z,5.10
2023-02-19T17:21:32.464Z,5.10
2023-02-19T17:24:02.079Z,5.07
2023-02-19T17:26:33.822Z,5.15
2023-02-19T17:29:09.399Z,5.05
2023-02-19T17:31:46.234Z,5.35
2023-02-19T17:34:18.478Z,4.70
2023-02-19T17:36:55.925Z,5.38
2023-02-19T17:39:28.832Z,5.60
2023-02-19T17:42:03.610Z,6.13
2023-02-19T17:44:39.184Z,7.45
2023-02-19T17:47:08.896Z,7.18
2023-02-19T17:49:41.514Z,7.65
2023-02-19T17:52:17.974Z,8.50
2023-02-19T17:54:49.573Z,7.07
2023-02-19T17:57:27.590Z,9.00
2023-02-19T18:00:02.620Z,9.13
2023-02-19T18:02:43.999Z,9.73
2023-02-19T18:05:15.700Z,7.78
2023-02-19T18:07:49.044Z,7.60
2023-02-19T18:10:22.888Z,6.03
2023-02-19T18:12:56.459Z,6.28
2023-02-19T18:15:29.866Z,6.63
2023-02-19T18:18:05.592Z,6.78
2023-02-19T18:20:41.010Z,5.60
2023-02-19T18:23:12.850Z,5.75
2023-02-19T18:25:46.146Z,4.72
2023-02-19T18:28:21.141Z,5.72
2023-02-19T18:30:53.465Z,5.38
2023-02-19T18:33:25.812Z,4.93
2023-02-19T18:35:55.589Z,4.90
2023-02-19T18:38:29.087Z,6.47
2023-02-19T18:41:04.280Z,6.43
2023-02-19T18:43:39.075Z,5.22
2023-02-19T18:46:13.384Z,4.45
2023-02-19T18:48:47.354Z,4.43
2023-02-19T18:51:23.842Z,4.28
2023-02-19T18:53:53.384Z,6.55
2023-02-19T18:56:23.514Z,6.78
2023-02-19T18:58:56.064Z,6.53
2023-02-19T19:01:30.193Z,6.80
2023-02-19T19:04:02.724Z,6.03
2023-02-19T19:06:40.622Z,7.72
2023-02-19T19:09:10.483Z,8.50
2023-02-19T19:11:39.871Z,6.40
2023-02-19T19:14:13.315Z,4.97
2023-02-19T19:16:45.567Z,4.13
2023-02-19T19:19:17.655Z,4.47
2023-02-19T19:21:53.397Z,4.82
2023-02-19T19:24:25.522Z,3.75
2023-02-19T19:26:57.463Z,4.38
2023-02-19T19:29:29.752Z,4.88
2023-02-19T19:32:02.641Z,5.47
2023-02-19T19:34:33.057Z,4.05
2023-02-19T19:37:02.391Z,5.10
2023-02-19T19:39:32.485Z,4.68
2023-02-19T19:42:09.890Z,4.50
2023-02-19T19:44:41.941Z,3.90
2023-02-19T19:47:14.231Z,4.53
2023-02-19T19:49:43.629Z,3.95
2023-02-19T19:52:15.081Z,4.00
2023-02-19T19:54:45.486Z,4.35
2023-02-19T19:57:19.201Z,4.97
2023-02-19T19:59:51.843Z,3.45
2023-02-19T20:02:24.446Z,3.95
2023-02-19T20:05:01.779Z,4.13
2023-02-19T20:07:34.342Z,3.85
2023-02-19T20:10:07.296Z,4.47
2023-02-19T20:12:50.198Z,3.70
2023-02-19T20:15:29.852Z,4.05
2023-02-19T20:18:05.412Z,4.00
2023-02-19T20:20:40.872Z,3.80
2023-02-19T20:23:13.072Z,3.65
2023-02-19T20:25:46.761Z,3.60
2023-02-19T20:28:21.802Z,3.83
2023-02-19T20:30:55.754Z,3.33
2023-02-19T20:33:30.960Z,3.33
2023-02-19T20:36:02.337Z,2.97
2023-02-19T20:38:31.444Z,3.50
2023-02-19T20:41:02.733Z,3.47
2023-02-19T20:43:34.750Z,2.75
2023-02-19T20:46:06.963Z,2.90
2023-02-19T20:48:39.269Z,3.38
2023-02-19T20:51:13.166Z,3.33
2023-02-19T20:53:43.069Z,4.95
2023-02-19T20:56:15.378Z,7.07
2023-02-19T20:58:49.085Z,6.28
2023-02-19T21:01:27.089Z,3.90
2023-02-19T21:03:56.898Z,3.25
2023-02-19T21:06:26.017Z,2.92
2023-02-19T21:09:09.019Z,2.88
2023-02-19T21:11:45.936Z,2.50
2023-02-19T21:14:18.548Z,2.50
2023-02-19T21:16:49.979Z,2.25
2023-02-19T21:19:24.164Z,2.53
2023-02-19T21:22:03.491Z,2.47
2023-02-19T21:24:39.086Z,2.50
2023-02-19T21:27:08.369Z,2.78
2023-02-19T21:29:42.418Z,2.58
2023-02-19T21:32:18.588Z,3.25
2023-02-19T21:34:55.563Z,3.38
2023-02-19T21:37:28.288Z,3.17
2023-02-19T21:40:00.890Z,2.75
2023-02-19T21:42:30.899Z,2.42
2023-02-19T21:45:05.334Z,2.97
2023-02-19T21:47:39.066Z,2.80
2023-02-19T21:50:14.321Z,2.80
2023-02-19T21:52:43.981Z,3.75
2023-02-19T21:55:19.999Z,2.80
2023-02-19T21:57:59.352Z,2.80
2023-02-19T22:00:31.920Z,2.42
2023-02-19T22:03:09.026Z,3.20
2023-02-19T22:05:41.169Z,3.63
2023-02-19T22:08:16.022Z,3.50
2023-02-19T22:10:48.386Z,3.78
2023-02-19T22:13:25.684Z,3.70
2023-02-19T22:15:54.713Z,4.40
2023-02-19T22:18:28.660Z,4.00
2023-02-19T22:21:03.613Z,3.97
2023-02-19T22:23:39.363Z,4.60
2023-02-19T22:26:28.584Z,4.57
2023-02-19T22:29:00.273Z,4.00
2023-02-19T22:31:29.680Z,4.55
2023-02-19T22:34:02.478Z,5.00
2023-02-19T22:36:40.241Z,5.00
2023-02-19T22:39:35.119Z,5.38
2023-02-19T22:42:07.387Z,5.15
2023-02-19T22:44:39.248Z,5.47
2023-02-19T22:47:13.221Z,5.47
2023-02-19T22:49:47.906Z,5.20
2023-02-19T22:52:19.328Z,4.72
2023-02-19T22:54:48.276Z,5.65
2023-02-19T22:57:22.703Z,5.95
2023-02-19T22:59:59.258Z,6.32
2023-02-19T23:02:33.889Z,6.40
2023-02-19T23:05:03.814Z,6.38
2023-02-19T23:07:37.722Z,6.03
2023-02-19T23:10:18.206Z,5.88
2023-02-19T23:12:51.014Z,5.45
2023-02-19T23:15:25.993Z,6.30
2023-02-19T23:18:00.521Z,6.20
2023-02-19T23:20:37.860Z,7.38
2023-02-19T23:23:07.380Z,6.97
2023-02-19T23:28:10.967Z,6.03
2023-02-19T23:30:40.184Z,6.32
2023-02-19T23:33:14.319Z,6.50
2023-02-19T23:35:48.377Z,7.38
2023-02-19T23:38:21.490Z,6.95
2023-02-19T23:40:52.859Z,6.70
2023-02-19T23:43:26.201Z,6.47
2023-02-19T23:46:02.875Z,6.75
2023-02-19T23:48:32.293Z,6.53
2023-02-19T23:51:03.392Z,7.97
2023-02-19T23:53:32.780Z,7.57
2023-02-19T23:56:10.101Z,7.72
2023-02-19T23:58:41.994Z,7.80
